Time;durP1;ratioP1;P1;durP2;ratioP2;P2;SDS_P1;SDS_P2;PMS_P1;PMS_P2;Temp;Humidity;BMP_temperature;BMP_pressure;BME280_temperature;BME280_humidity;BME280_pressure;Samples;Min_cycle;Max_cycle;Signal;HPM_P1;HPM_P2
2022/02/03 00:01:55;;;;;;;12.35;7.50;;;15.10;73.80;;;;;;4130077;28;20050;-59
2022/02/03 00:04:21;;;;;;;11.90;8.20;;;15.20;73.90;;;;;;4129824;28;20050;-60
2022/02/03 00:06:50;;;;;;;12.88;7.88;;;15.10;73.80;;;;;;4133872;28;20054;-59
2022/02/03 00:09:49;;;;;;;10.38;7.72;;;15.10;73.90;;;;;;4129476;28;20056;-60
2022/02/03 00:23:12;;;;;;;12.90;8.77;;;15.00;74.30;;;;;;4145627;28;20074;-59
2022/02/03 00:25:41;;;;;;;13.90;9.52;;;15.00;74.90;;;;;;4139332;28;20050;-59
2022/02/03 00:28:10;;;;;;;13.75;8.75;;;15.00;74.60;;;;;;4129047;28;20070;-60
2022/02/03 00:30:46;;;;;;;16.48;9.55;;;15.00;74.90;;;;;;4127649;28;20057;-59
2022/02/03 00:33:20;;;;;;;16.73;11.20;;;15.10;74.70;;;;;;4155080;28;20046;-60
2022/02/03 00:35:59;;;;;;;15.65;10.43;;;15.20;74.50;;;;;;4129137;28;20077;-61
2022/02/03 00:38:40;;;;;;;18.20;11.63;;;15.30;74.20;;;;;;4128406;28;20078;-60
2022/02/03 00:49:09;;;;;;;16.77;11.40;;;15.50;73.70;;;;;;4128596;28;20057;-60
2022/02/03 00:51:31;;;;;;;19.20;12.02;;;15.50;73.80;;;;;;4129068;28;20046;-60
2022/02/03 00:53:56;;;;;;;21.30;13.30;;;15.40;73.80;;;;;;4128817;28;20487;-60
2022/02/03 00:56:23;;;;;;;17.63;11.52;;;15.40;73.80;;;;;;4128875;28;20129;-59
2022/02/03 00:58:52;;;;;;;18.48;11.15;;;15.40;74.00;;;;;;4126057;28;20046;-60
2022/02/03 01:01:18;;;;;;;19.20;12.05;;;15.40;74.00;;;;;;4123358;28;20522;-59
2022/02/03 01:03:44;;;;;;;17.88;12.38;;;15.40;74.00;;;;;;4129503;28;20212;-60
2022/02/03 01:06:07;;;;;;;18.83;12.18;;;15.40;74.10;;;;;;4128145;28;20062;-59
2022/02/03 01:08:31;;;;;;;19.67;13.10;;;15.40;74.20;;;;;;4128812;28;20061;-60
2022/02/03 01:11:04;;;;;;;17.83;12.43;;;15.30;74.20;;;;;;4128903;28;20050;-59
2022/02/03 01:13:37;;;;;;;21.10;11.95;;;15.30;74.20;;;;;;4125293;28;20128;-60
2022/02/03 01:16:07;;;;;;;16.55;11.68;;;15.40;74.30;;;;;;4127775;28;20050;-60
2022/02/03 01:18:58;;;;;;;17.05;11.20;;;15.30;74.30;;;;;;4128580;28;20069;-60
2022/02/03 01:21:37;;;;;;;17.90;11.13;;;15.30;74.40;;;;;;4128617;28;20054;-60
2022/02/03 01:34:54;;;;;;;;;;;15.50;73.80;;;;;;4128763;28;20038;-59
2022/02/03 01:37:35;;;;;;;13.50;9.95;;;15.50;73.70;;;;;;4128463;28;19984;-59
2022/02/03 01:45:23;;;;;;;12.88;9.43;;;15.60;74.60;;;;;;4125809;28;20137;-59
2022/02/03 01:47:54;;;;;;;12.27;9.70;;;15.60;73.60;;;;;;4127962;28;20050;-60
2022/02/03 01:53:01;;;;;;;10.57;8.63;;;15.60;73.70;;;;;;4126566;28;20574;-59
2022/02/03 01:55:26;;;;;;;11.10;8.73;;;15.60;73.70;;;;;;4128187;28;20410;-59
2022/02/03 01:57:57;;;;;;;10.48;7.97;;;15.60;73.60;;;;;;4127986;28;20062;-60
2022/02/03 02:00:21;;;;;;;10.35;8.00;;;15.60;73.70;;;;;;4127383;28;20133;-60
2022/02/03 02:02:46;;;;;;;10.23;8.35;;;15.60;73.70;;;;;;4127869;28;20715;-60
2022/02/03 02:05:21;;;;;;;10.18;8.30;;;15.60;73.80;;;;;;4127781;28;20104;-60
2022/02/03 02:07:58;;;;;;;9.20;7.43;;;15.50;73.80;;;;;;4119064;28;20046;-60
2022/02/03 02:10:54;;;;;;;8.20;7.22;;;15.50;73.90;;;;;;4123183;28;20046;-60
2022/02/03 02:13:37;;;;;;;8.15;6.93;;;15.50;74.00;;;;;;4111819;28;20047;-60
2022/02/03 02:16:13;;;;;;;11.10;7.20;;;15.50;74.20;;;;;;4111570;28;20055;-60
2022/02/03 02:19:04;;;;;;;11.02;8.20;;;15.60;74.00;;;;;;4111684;28;20058;-60
2022/02/03 02:40:45;;;;;;;20.88;13.40;;;15.80;73.60;;;;;;4127120;28;20050;-59
2022/02/03 02:43:16;;;;;;;24.70;14.85;;;15.80;73.20;;;;;;4127016;28;20057;-60
2022/02/03 02:45:53;;;;;;;21.70;14.50;;;15.80;73.00;;;;;;4126949;28;20058;-59
2022/02/03 02:48:30;;;;;;;20.65;13.40;;;15.90;72.90;;;;;;4126794;28;20073;-59
2022/02/03 02:51:03;;;;;;;21.27;13.05;;;15.90;72.80;;;;;;4126727;28;20470;-59
2022/02/03 02:53:40;;;;;;;21.58;13.60;;;15.90;72.50;;;;;;4126896;28;20904;-59
2022/02/03 02:56:16;;;;;;;23.08;15.32;;;16.00;72.40;;;;;;4126911;28;20482;-59
2022/02/03 03:31:46;;;;;;;21.00;14.43;;;16.20;72.00;;;;;;4187436;28;20079;-60
2022/02/03 03:34:20;;;;;;;26.38;14.07;;;16.20;71.80;;;;;;4237389;27;20058;-61
2022/02/03 03:36:45;;;;;;;27.63;13.82;;;16.20;71.80;;;;;;4239986;27;20054;-60
2022/02/03 03:39:11;;;;;;;20.35;13.18;;;16.20;71.80;;;;;;4239180;27;20393;-60
2022/02/03 03:41:35;;;;;;;24.88;14.90;;;16.20;71.80;;;;;;4240435;27;20474;-61
2022/02/03 03:44:03;;;;;;;27.25;15.50;;;16.20;71.80;;;;;;4240148;27;20054;-60
2022/02/03 03:46:27;;;;;;;21.90;14.80;;;16.20;71.80;;;;;;4239599;27;20052;-60
2022/02/03 03:49:02;;;;;;;25.73;14.65;;;16.20;71.90;;;;;;4240150;27;20036;-58
2022/02/03 03:51:32;;;;;;;21.42;14.00;;;16.10;72.00;;;;;;4239436;27;20459;-60
2022/02/03 03:54:03;;;;;;;22.27;15.05;;;16.10;72.20;;;;;;4239353;27;20051;-60
2022/02/03 03:56:36;;;;;;;27.75;15.38;;;16.10;72.40;;;;;;4239154;27;20069;-60
2022/02/03 04:33:11;;;;;;;17.13;12.07;;;16.30;71.40;;;;;;4205923;28;20412;-60
2022/02/03 04:41:40;;;;;;;;;;;16.20;72.10;;;;;;4208156;27;20063;-60
2022/02/03 04:56:32;;;;;;;18.42;11.15;;;15.90;73.20;;;;;;4205334;28;20084;-60
2022/02/03 05:02:12;;;;;;;18.20;11.27;;;15.90;73.70;;;;;;4170787;28;20040;-64
2022/02/03 05:04:51;;;;;;;14.63;10.48;;;16.10;73.20;;;;;;4190325;28;20056;-65
2022/02/03 05:08:00;;;;;;;15.30;10.57;;;16.20;72.70;;;;;;4205268;28;20040;-61
2022/02/03 05:11:12;;;;;;;13.85;10.60;;;16.30;72.30;;;;;;4188296;28;20063;-61
2022/02/03 05:13:49;;;;;;;17.52;10.88;;;16.30;72.10;;;;;;4179159;28;20135;-61
2022/02/03 05:17:02;;;;;;;16.60;10.13;;;16.40;71.90;;;;;;4192939;28;20531;-60
2022/02/03 05:19:57;;;;;;;18.30;11.55;;;16.40;71.90;;;;;;4185310;28;20096;-61
2022/02/03 05:23:14;;;;;;;19.35;10.98;;;16.40;71.90;;;;;;4184828;28;20040;-58
2022/02/03 05:26:09;;;;;;;20.98;12.13;;;16.30;72.10;;;;;;4192891;28;20412;-61
2022/02/03 05:35:16;;;;;;;17.10;11.63;;;16.10;72.80;;;;;;4144616;28;20045;-61
2022/02/03 05:43:53;;;;;;;19.55;14.07;;;16.00;73.50;;;;;;4194160;28;20054;-60
2022/02/03 05:49:16;;;;;;;20.48;12.85;;;16.10;73.30;;;;;;4194021;28;20564;-61
2022/02/03 06:05:13;;;;;;;20.50;15.38;;;16.40;72.00;;;;;;4192595;28;20373;-61
2022/02/03 06:07:55;;;;;;;24.85;15.98;;;16.30;72.10;;;;;;4177263;28;20051;-61
2022/02/03 06:13:11;;;;;;;28.42;16.67;;;16.20;72.40;;;;;;4193598;28;20076;-61
2022/02/03 06:15:41;;;;;;;27.88;18.33;;;16.20;72.70;;;;;;4193588;28;20044;-61
2022/02/03 06:23:42;;;;;;;27.30;17.85;;;16.30;72.50;;;;;;4161789;28;20302;-60
2022/02/03 06:28:48;;;;;;;23.73;16.77;;;16.30;72.50;;;;;;4176967;28;20469;-60
2022/02/03 06:31:10;;;;;;;34.75;21.10;;;16.30;72.50;;;;;;4192887;28;20396;-60
2022/02/03 06:33:32;;;;;;;32.67;20.38;;;16.20;72.50;;;;;;4193329;28;20048;-60
2022/02/03 06:35:54;;;;;;;33.53;22.02;;;16.20;72.70;;;;;;4191697;28;20468;-60
2022/02/03 06:38:16;;;;;;;32.92;20.88;;;16.20;72.90;;;;;;4190207;28;20110;-60
2022/02/03 06:40:38;;;;;;;31.23;20.38;;;16.20;73.10;;;;;;4176780;28;20049;-60
2022/02/03 06:43:01;;;;;;;33.13;20.45;;;16.20;72.90;;;;;;4176994;28;20111;-60
2022/02/03 06:45:35;;;;;;;36.13;22.48;;;16.30;72.60;;;;;;4176709;28;20393;-60
2022/02/03 06:48:01;;;;;;;36.95;21.10;;;16.40;72.40;;;;;;4176657;28;20056;-60
2022/02/03 06:50:29;;;;;;;36.22;22.20;;;16.40;72.10;;;;;;4188544;28;20102;-60
2022/02/03 06:52:56;;;;;;;34.22;22.02;;;16.40;72.00;;;;;;4178125;28;20493;-60
2022/02/03 06:55:22;;;;;;;39.05;24.45;;;16.40;71.90;;;;;;4176807;28;20056;-60
2022/02/03 06:57:50;;;;;;;36.58;22.42;;;16.50;71.90;;;;;;4176603;28;20049;-60
2022/02/03 07:00:19;;;;;;;41.47;24.70;;;16.40;71.80;;;;;;4192410;28;20432;-60
2022/02/03 07:02:43;;;;;;;37.22;23.52;;;16.40;71.80;;;;;;4192935;28;20365;-60
2022/02/03 07:05:06;;;;;;;37.75;25.33;;;16.40;71.90;;;;;;4187244;28;20473;-60
2022/02/03 07:07:28;;;;;;;36.42;23.58;;;16.40;71.90;;;;;;4191327;28;20040;-60
2022/02/03 07:09:52;;;;;;;45.28;24.60;;;16.40;72.00;;;;;;4191606;28;20076;-60
2022/02/03 07:12:14;;;;;;;40.35;24.98;;;16.40;72.00;;;;;;4192953;28;20044;-61
2022/02/03 07:14:37;;;;;;;37.25;24.98;;;16.40;72.10;;;;;;4192196;28;20457;-60
2022/02/03 07:17:04;;;;;;;38.50;23.35;;;16.40;72.10;;;;;;4192016;28;20072;-61
2022/02/03 07:19:27;;;;;;;41.22;27.13;;;16.40;72.30;;;;;;4191310;28;20056;-61
2022/02/03 07:21:49;;;;;;;43.75;25.70;;;16.30;72.30;;;;;;4192681;28;20059;-61
2022/02/03 07:24:11;;;;;;;46.30;26.60;;;16.40;72.50;;;;;;4176368;28;20044;-61
2022/02/03 07:26:33;;;;;;;46.03;26.75;;;16.40;72.90;;;;;;4171799;28;20479;-61
2022/02/03 07:28:55;;;;;;;34.88;23.80;;;16.50;72.90;;;;;;4191309;28;20060;-61
2022/02/03 07:31:18;;;;;;;42.53;24.30;;;16.60;72.50;;;;;;4191875;28;20479;-61
2022/02/03 07:33:40;;;;;;;39.47;25.73;;;16.60;71.90;;;;;;4185002;28;20041;-61
2022/02/03 07:36:04;;;;;;;40.75;24.95;;;16.70;71.50;;;;;;4174903;28;20057;-61
2022/02/03 07:38:27;;;;;;;40.88;24.42;;;16.70;71.30;;;;;;4169578;28;20037;-60
2022/02/03 07:40:49;;;;;;;37.03;22.08;;;16.70;71.30;;;;;;4174359;28;20817;-60
2022/02/03 07:43:11;;;;;;;37.05;21.90;;;16.70;71.40;;;;;;4191144;28;20157;-60
2022/02/03 07:45:33;;;;;;;33.28;21.67;;;16.60;71.40;;;;;;4190982;28;20197;-61
2022/02/03 07:47:55;;;;;;;34.67;19.23;;;16.60;71.60;;;;;;4191736;28;20052;-61
2022/02/03 07:50:19;;;;;;;35.08;20.92;;;16.50;71.90;;;;;;4192163;28;20052;-60
2022/02/03 07:52:43;;;;;;;33.13;19.00;;;16.50;72.00;;;;;;4191972;28;20051;-61
2022/02/03 07:55:07;;;;;;;31.58;17.65;;;16.40;72.20;;;;;;4192105;28;20059;-61
2022/02/03 07:57:29;;;;;;;29.58;18.08;;;16.30;72.50;;;;;;4191451;28;20053;-60
2022/02/03 07:59:52;;;;;;;33.38;17.70;;;16.30;72.70;;;;;;4190431;28;20056;-60
2022/02/03 08:02:15;;;;;;;27.10;17.15;;;16.20;73.10;;;;;;4191818;28;20408;-60
2022/02/03 08:04:43;;;;;;;43.50;20.02;;;16.20;73.40;;;;;;4191474;28;20048;-62
2022/02/03 08:07:05;;;;;;;31.77;19.67;;;16.20;73.50;;;;;;4191538;28;20448;-60
2022/02/03 08:09:37;;;;;;;35.55;20.67;;;16.10;73.60;;;;;;4175498;28;20052;-60
2022/02/03 08:12:02;;;;;;;33.03;19.75;;;16.10;73.60;;;;;;4176925;28;20041;-60
2022/02/03 08:14:32;;;;;;;35.63;20.58;;;16.10;73.80;;;;;;4174738;28;20049;-59
2022/02/03 08:17:00;;;;;;;34.78;19.70;;;16.10;73.80;;;;;;4175520;28;20562;-60
2022/02/03 08:19:27;;;;;;;31.20;19.55;;;16.10;74.00;;;;;;4175124;28;20457;-60
2022/02/03 08:21:57;;;;;;;30.88;19.20;;;16.10;74.00;;;;;;4189106;28;20053;-61
2022/02/03 08:24:23;;;;;;;28.30;18.37;;;16.10;74.10;;;;;;4191444;28;20072;-60
2022/02/03 08:27:01;;;;;;;32.85;18.38;;;16.20;73.80;;;;;;4191802;28;20094;-60
2022/02/03 08:32:11;;;;;;;24.85;17.00;;;16.40;72.60;;;;;;4179358;28;20106;-59
2022/02/03 08:34:42;;;;;;;28.85;18.20;;;16.50;72.20;;;;;;4191776;28;20057;-58
2022/02/03 08:37:06;;;;;;;32.88;18.55;;;16.60;72.10;;;;;;4190843;28;20048;-59
2022/02/03 08:39:33;;;;;;;30.45;17.45;;;16.60;71.80;;;;;;4192102;28;20155;-59
2022/02/03 08:41:57;;;;;;;27.20;17.33;;;16.60;71.60;;;;;;4175638;28;20041;-59
2022/02/03 08:44:19;;;;;;;27.27;17.33;;;16.60;71.70;;;;;;4175154;28;20060;-59
2022/02/03 08:46:41;;;;;;;27.27;17.52;;;16.60;71.80;;;;;;4177516;28;20077;-58
2022/02/03 08:49:06;;;;;;;22.90;15.32;;;16.60;71.80;;;;;;4187220;28;20099;-58
2022/02/03 08:51:28;;;;;;;24.58;16.70;;;16.50;71.80;;;;;;4195163;28;20036;-58
2022/02/03 08:53:54;;;;;;;24.05;14.85;;;16.50;72.00;;;;;;4194355;28;20060;-59
2022/02/03 08:56:27;;;;;;;24.02;15.65;;;16.40;72.20;;;;;;4163586;28;20049;-59
2022/02/03 09:36:53;;;;;;;19.02;11.80;;;16.60;72.10;;;;;;4189792;28;20049;-58
2022/02/03 09:39:23;;;;;;;16.58;11.20;;;16.60;72.00;;;;;;4188860;28;20049;-59
2022/02/03 09:44:53;;;;;;;17.35;10.30;;;16.50;71.90;;;;;;4188061;28;20043;-59
2022/02/03 09:50:54;;;;;;;15.00;9.20;;;16.40;72.60;;;;;;4188888;28;20068;-58
2022/02/03 09:56:15;;;;;;;16.00;8.90;;;16.50;72.60;;;;;;4144389;28;20690;-59
2022/02/03 09:58:43;;;;;;;14.82;8.60;;;16.50;73.20;;;;;;4157702;28;20108;-59
2022/02/03 10:01:08;;;;;;;13.95;8.77;;;16.50;72.10;;;;;;4159969;28;20064;-59
2022/02/03 10:03:37;;;;;;;15.20;8.30;;;16.50;72.10;;;;;;4173199;28;20135;-59
2022/02/03 10:06:06;;;;;;;12.23;8.55;;;16.50;72.10;;;;;;4172344;28;20048;-59
2022/02/03 10:08:29;;;;;;;16.63;8.70;;;16.50;72.30;;;;;;4171937;28;20049;-59
2022/02/03 10:11:10;;;;;;;14.85;8.63;;;16.50;72.50;;;;;;4172122;28;20432;-59
2022/02/03 10:13:42;;;;;;;13.90;8.18;;;16.50;72.30;;;;;;4161474;28;20045;-59
2022/02/03 10:16:06;;;;;;;12.25;8.40;;;16.60;72.00;;;;;;4161434;28;20050;-59
2022/02/03 10:18:29;;;;;;;15.00;7.88;;;16.60;71.70;;;;;;4161381;28;20056;-59
2022/02/03 10:20:51;;;;;;;12.43;7.97;;;16.60;71.40;;;;;;4161340;28;20056;-58
2022/02/03 10:23:20;;;;;;;11.90;8.50;;;16.60;71.30;;;;;;4151106;28;20075;-59
2022/02/03 10:25:42;;;;;;;14.20;8.40;;;16.70;71.50;;;;;;4161729;28;20053;-59
2022/02/03 10:28:10;;;;;;;14.00;8.10;;;16.70;71.50;;;;;;4160993;28;20056;-59
2022/02/03 10:30:37;;;;;;;12.70;8.20;;;16.60;71.40;;;;;;4161022;28;20175;-58
2022/02/03 10:32:59;;;;;;;12.13;8.43;;;16.60;71.50;;;;;;4161522;28;20092;-59
2022/02/03 10:35:29;;;;;;;10.70;7.72;;;16.50;71.70;;;;;;4161053;28;20053;-59
2022/02/03 10:47:02;;;;;;;;;;;16.20;72.90;;;;;;4105926;28;20550;-59
2022/02/03 10:50:17;;;;;;;15.10;7.43;;;16.20;73.30;;;;;;4155196;28;19937;-58
2022/02/03 11:03:42;;;;;;;14.43;9.27;;;16.40;72.90;;;;;;4154514;28;20470;-59
2022/02/03 11:06:19;;;;;;;13.68;9.40;;;16.40;72.80;;;;;;4144639;28;20125;-59
2022/02/03 11:08:48;;;;;;;11.02;9.00;;;16.40;72.80;;;;;;4149256;28;20413;-59
2022/02/03 11:11:18;;;;;;;10.98;8.30;;;16.30;72.90;;;;;;4159154;28;20046;-59
2022/02/03 11:13:40;;;;;;;13.10;8.68;;;16.30;73.00;;;;;;4159068;28;20480;-59
2022/02/03 11:16:05;;;;;;;12.93;8.75;;;16.30;73.40;;;;;;4177009;28;20049;-60
2022/02/03 11:18:27;;;;;;;12.85;9.05;;;16.20;73.50;;;;;;4163523;28;20041;-59
2022/02/03 11:20:50;;;;;;;11.10;8.65;;;16.20;73.70;;;;;;4160929;28;20139;-62
2022/02/03 11:23:23;;;;;;;14.70;9.18;;;16.10;73.90;;;;;;4159090;28;20080;-63
2022/02/03 11:26:01;;;;;;;13.90;8.48;;;16.10;74.40;;;;;;4150253;28;20132;-62
2022/02/03 11:31:33;;;;;;;17.15;9.68;;;16.00;74.40;;;;;;4142614;28;20054;-60
2022/02/03 11:42:16;;;;;;;11.48;9.23;;;15.90;75.30;;;;;;4160054;28;20068;-59
2022/02/03 11:47:49;;;;;;;17.65;9.25;;;15.80;75.60;;;;;;4160207;28;20045;-60
2022/02/03 11:53:34;;;;;;;14.18;9.52;;;15.70;75.80;;;;;;4147931;28;20049;-60
2022/02/03 12:01:36;;;;;;;;;;;15.70;76.30;;;;;;4221414;28;20052;-59
2022/02/03 12:04:30;;;;;;;16.45;9.77;;;15.60;76.30;;;;;;4228345;28;19926;-59
2022/02/03 12:17:59;;;;;;;20.13;9.15;;;15.50;76.50;;;;;;4215074;28;20086;-59
2022/02/03 12:20:44;;;;;;;12.25;7.22;;;15.50;76.70;;;;;;4211372;28;20063;-59
2022/02/03 12:23:38;;;;;;;10.20;6.38;;;15.50;76.70;;;;;;4224083;28;20529;-59
2022/02/03 12:26:08;;;;;;;11.88;8.30;;;15.40;76.80;;;;;;4228021;28;20054;-59
2022/02/03 12:28:37;;;;;;;11.15;7.90;;;15.40;77.00;;;;;;4227846;28;20118;-59
2022/02/03 12:39:20;;;;;;;12.45;7.55;;;15.40;77.00;;;;;;4175641;28;20057;-58
2022/02/03 12:41:49;;;;;;;9.23;7.18;;;15.40;77.10;;;;;;4176082;28;20115;-59
2022/02/03 12:44:20;;;;;;;9.80;6.68;;;15.40;77.40;;;;;;4197447;28;20044;-59
2022/02/03 12:46:44;;;;;;;13.35;7.68;;;15.40;77.40;;;;;;4227732;28;20054;-59
2022/02/03 12:49:06;;;;;;;8.25;6.20;;;15.40;77.30;;;;;;4226929;27;20480;-59
2022/02/03 12:51:29;;;;;;;11.40;6.05;;;15.50;77.40;;;;;;4227708;28;20126;-59
2022/02/03 12:53:51;;;;;;;6.68;5.00;;;15.50;76.80;;;;;;4227600;28;20085;-59
2022/02/03 12:56:13;;;;;;;9.90;6.65;;;15.50;75.30;;;;;;4227626;28;20063;-59
2022/02/03 12:58:39;;;;;;;10.43;5.00;;;15.60;74.10;;;;;;4210231;28;20059;-59
2022/02/03 13:01:08;;;;;;;11.32;6.07;;;15.50;74.30;;;;;;4210401;28;20134;-59
2022/02/03 13:03:33;;;;;;;10.70;6.50;;;15.50;73.30;;;;;;4210579;28;20138;-59
2022/02/03 13:05:58;;;;;;;7.75;5.10;;;15.50;74.20;;;;;;4193041;28;20053;-59
2022/02/03 13:08:21;;;;;;;6.47;4.55;;;15.50;73.40;;;;;;4191142;28;20049;-59
2022/02/03 13:10:46;;;;;;;9.07;5.65;;;15.50;73.60;;;;;;4182861;28;20103;-59
2022/02/03 13:13:18;;;;;;;8.85;6.35;;;15.50;73.50;;;;;;4182862;28;20060;-59
2022/02/03 13:15:41;;;;;;;6.75;4.00;;;15.50;73.30;;;;;;4182827;28;20053;-59
2022/02/03 13:18:07;;;;;;;11.68;6.30;;;15.50;73.50;;;;;;4182463;28;20114;-59
2022/02/03 13:20:42;;;;;;;10.85;6.13;;;15.50;73.40;;;;;;4178828;28;20381;-60
2022/02/03 13:23:12;;;;;;;7.30;6.00;;;15.50;73.60;;;;;;4181284;28;20049;-60
2022/02/03 13:25:46;;;;;;;7.95;5.65;;;15.50;73.70;;;;;;4182292;28;20571;-60
2022/02/03 13:28:13;;;;;;;8.32;6.32;;;15.50;74.20;;;;;;4182498;28;20481;-60
2022/02/03 13:30:47;;;;;;;8.27;5.70;;;15.50;75.30;;;;;;4182583;28;20045;-59
2022/02/03 13:33:11;;;;;;;8.68;6.00;;;15.60;74.40;;;;;;4182217;28;20138;-60
2022/02/03 13:35:48;;;;;;;10.02;6.13;;;15.60;74.20;;;;;;4181709;28;20091;-60
2022/02/03 13:38:21;;;;;;;11.65;5.70;;;15.60;74.20;;;;;;4182157;28;20056;-60
2022/02/03 13:40:43;;;;;;;11.32;6.30;;;15.60;74.10;;;;;;4173951;28;20135;-60
2022/02/03 13:43:08;;;;;;;10.00;5.90;;;15.70;74.00;;;;;;4181972;28;20489;-59
2022/02/03 13:45:31;;;;;;;9.75;6.00;;;15.60;73.70;;;;;;4181816;28;20053;-59
2022/02/03 13:47:53;;;;;;;8.48;6.10;;;15.60;73.90;;;;;;4182164;28;20049;-60
2022/02/03 13:50:22;;;;;;;10.65;6.10;;;15.70;74.00;;;;;;4181962;28;20059;-60
2022/02/03 13:52:50;;;;;;;7.95;6.00;;;15.70;73.90;;;;;;4194609;28;20118;-60
2022/02/03 14:14:52;;;;;;;6.38;5.32;;;15.70;74.10;;;;;;4198580;28;20447;-60
2022/02/03 14:17:51;;;;;;;4.88;4.47;;;15.80;73.70;;;;;;4198306;28;20048;-60
2022/02/03 14:20:37;;;;;;;6.80;4.38;;;15.80;73.20;;;;;;4197329;28;20054;-60
2022/02/03 14:23:25;;;;;;;7.32;4.65;;;15.80;73.10;;;;;;4197445;28;20049;-60
2022/02/03 14:28:30;;;;;;;7.37;4.17;;;15.90;73.80;;;;;;4196935;28;20053;-61
2022/02/03 14:30:55;;;;;;;4.70;4.30;;;15.90;72.90;;;;;;4188992;28;20681;-62
2022/02/03 14:33:25;;;;;;;4.40;4.10;;;15.90;73.00;;;;;;4198149;28;20162;-61
2022/02/03 14:35:47;;;;;;;4.50;4.03;;;15.90;73.00;;;;;;4197922;28;20052;-60
2022/02/03 14:38:16;;;;;;;3.47;3.28;;;15.80;72.90;;;;;;4198011;28;20059;-60
2022/02/03 14:40:51;;;;;;;5.15;3.55;;;15.80;73.10;;;;;;4180790;28;20044;-63
2022/02/03 14:43:15;;;;;;;4.25;3.85;;;15.80;73.10;;;;;;4181310;28;20056;-61
2022/02/03 14:45:37;;;;;;;4.03;3.22;;;15.80;73.30;;;;;;4181208;28;20566;-60
2022/02/03 14:47:59;;;;;;;3.65;3.35;;;15.70;73.40;;;;;;4181016;28;20064;-61
2022/02/03 14:50:22;;;;;;;5.45;3.78;;;15.70;74.30;;;;;;4195834;28;20060;-61
2022/02/03 14:52:56;;;;;;;3.13;2.92;;;15.70;73.70;;;;;;4181041;28;20065;-61
2022/02/03 14:58:05;;;;;;;3.50;3.20;;;15.60;74.50;;;;;;4174343;28;20067;-62
2022/02/03 15:00:29;;;;;;;3.80;3.50;;;15.70;74.50;;;;;;4197127;28;20118;-62
2022/02/03 15:02:51;;;;;;;3.67;3.38;;;15.80;74.00;;;;;;4197304;28;20060;-61
2022/02/03 15:05:22;;;;;;;3.78;3.42;;;15.90;73.60;;;;;;4197227;28;20056;-61
2022/02/03 15:07:44;;;;;;;3.88;3.50;;;15.90;73.30;;;;;;4197344;28;20084;-61
2022/02/03 15:10:28;;;;;;;4.57;3.50;;;16.00;72.90;;;;;;4196860;28;20135;-60
2022/02/03 15:13:09;;;;;;;4.85;3.38;;;16.00;72.60;;;;;;4196377;28;20052;-60
2022/02/03 15:15:33;;;;;;;;;;;16.10;73.30;;;;;;4198051;28;20401;-61
2022/02/03 15:17:55;;;;;;;4.43;3.78;;;16.10;72.40;;;;;;4197466;28;19920;-60
2022/02/03 15:20:17;;;;;;;3.72;3.40;;;16.00;72.30;;;;;;4196718;28;20064;-60
2022/02/03 15:22:39;;;;;;;3.90;3.60;;;16.00;72.50;;;;;;4197426;28;20131;-60
2022/02/03 15:25:02;;;;;;;5.47;3.38;;;16.00;72.60;;;;;;4197442;28;20141;-61
2022/02/03 15:27:25;;;;;;;3.65;3.45;;;16.00;72.70;;;;;;4196087;28;20044;-60
2022/02/03 15:29:48;;;;;;;3.00;2.70;;;16.00;72.80;;;;;;4197372;28;20052;-60
2022/02/03 15:32:11;;;;;;;3.30;3.10;;;16.00;72.70;;;;;;4197012;28;20075;-60
2022/02/03 15:34:33;;;;;;;3.55;3.25;;;16.00;72.50;;;;;;4197290;28;20083;-60
2022/02/03 15:37:02;;;;;;;3.50;3.20;;;16.00;72.30;;;;;;4180711;28;20053;-60
2022/02/03 15:39:34;;;;;;;3.58;3.28;;;16.00;72.40;;;;;;4193118;28;20045;-60
2022/02/03 15:41:56;;;;;;;3.50;3.20;;;16.00;72.60;;;;;;4185507;28;20048;-61
2022/02/03 15:44:18;;;;;;;4.65;3.00;;;15.90;73.00;;;;;;4196110;28;20052;-60
2022/02/03 15:46:41;;;;;;;3.92;2.78;;;15.90;73.20;;;;;;4195881;28;20389;-60
2022/02/03 15:49:14;;;;;;;4.32;3.65;;;16.00;73.40;;;;;;4195924;28;20052;-60
2022/02/03 15:57:04;;;;;;;3.90;2.88;;;17.20;68.40;;;;;;4212726;28;20549;-60
2022/02/03 16:18:08;;;;;;;3.35;2.97;;;20.70;56.10;;;;;;4187292;28;20060;-61
2022/02/03 16:20:37;;;;;;;5.75;3.30;;;20.60;56.20;;;;;;4195734;28;20538;-61
2022/02/03 16:23:08;;;;;;;4.78;3.03;;;20.40;56.40;;;;;;4195864;28;20083;-60
2022/02/03 16:26:10;;;;;;;3.45;3.10;;;20.30;56.90;;;;;;4195819;28;20049;-60
2022/02/03 16:52:38;;;;;;;6.28;3.75;;;19.60;59.60;;;;;;4192655;28;20055;-61
2022/02/03 16:55:04;;;;;;;8.00;4.20;;;19.50;59.80;;;;;;4198979;28;20056;-62
2022/02/03 16:57:27;;;;;;;4.50;4.05;;;19.40;60.20;;;;;;4182502;28;20053;-60
2022/02/03 16:59:55;;;;;;;7.18;4.78;;;19.20;60.70;;;;;;4181004;28;20453;-60
2022/02/03 17:02:34;;;;;;;6.32;4.43;;;19.10;61.20;;;;;;4185106;28;20152;-60
2022/02/03 17:04:57;;;;;;;5.03;4.28;;;19.10;62.40;;;;;;4198866;28;20052;-59
2022/02/03 17:07:19;;;;;;;4.88;4.32;;;19.10;61.60;;;;;;4198339;28;20060;-60
2022/02/03 17:09:42;;;;;;;8.23;4.45;;;19.10;61.60;;;;;;4198492;28;20044;-60
2022/02/03 17:12:05;;;;;;;5.25;3.97;;;19.20;61.40;;;;;;4198556;28;20071;-60
2022/02/03 17:14:28;;;;;;;6.93;4.78;;;19.20;61.30;;;;;;4198863;28;20499;-60
2022/02/03 17:16:50;;;;;;;9.00;4.85;;;19.10;61.30;;;;;;4198121;28;20412;-61
2022/02/03 17:19:12;;;;;;;7.00;4.40;;;19.10;61.40;;;;;;4198999;28;20463;-61
2022/02/03 17:21:34;;;;;;;5.05;4.55;;;19.10;61.70;;;;;;4185186;28;20080;-59
2022/02/03 17:23:57;;;;;;;4.47;4.13;;;19.10;61.90;;;;;;4198513;28;20933;-60
2022/02/03 17:26:27;;;;;;;5.30;4.80;;;19.10;61.90;;;;;;4197055;28;20059;-60
2022/02/03 17:28:54;;;;;;;7.25;4.80;;;19.10;62.00;;;;;;4198421;28;20113;-59
2022/02/03 17:31:23;;;;;;;7.68;5.22;;;19.10;61.80;;;;;;4198846;28;20056;-59
2022/02/03 18:08:57;;;;;;;6.77;6.13;;;18.60;64.10;;;;;;4207466;27;1318380;-59
2022/02/03 18:11:35;;;;;;;6.97;5.72;;;18.60;64.00;;;;;;4244972;28;20055;-59
2022/02/03 18:28:25;;;;;;;7.28;6.20;;;19.20;64.30;;;;;;4208216;28;20080;-59
2022/02/03 18:30:23;;;;;;;9.80;5.90;;;19.30;63.80;;;;;;4210854;28;20052;-59
2022/02/03 18:32:56;;;;;;;7.07;6.20;;;19.30;63.30;;;;;;4210625;28;20745;-61
2022/02/03 18:35:32;;;;;;;8.82;6.43;;;19.30;63.20;;;;;;4210793;28;20484;-59
2022/02/03 18:51:25;;;;;;;7.30;6.13;;;19.10;64.00;;;;;;4210651;28;20121;-59
2022/02/03 18:53:59;;;;;;;6.82;6.00;;;18.90;64.30;;;;;;4222510;28;20048;-59
2022/02/03 18:56:31;;;;;;;7.95;5.65;;;18.90;64.70;;;;;;4227263;28;20043;-60
2022/02/03 18:59:02;;;;;;;9.75;6.25;;;18.80;65.10;;;;;;4206125;28;20090;-59
2022/02/03 19:02:00;;;;;;;10.75;6.72;;;18.70;65.80;;;;;;4196008;28;20053;-59
2022/02/03 19:15:34;;;;;;;9.30;7.43;;;18.90;65.10;;;;;;4210010;28;20102;-60
2022/02/03 19:29:07;;;;;;;8.95;6.60;;;18.90;64.40;;;;;;4169265;28;20044;-60
2022/02/03 20:03:48;;;;;;;13.45;8.20;;;18.80;64.60;;;;;;4198271;28;20404;-58
2022/02/03 20:06:24;;;;;;;11.93;8.07;;;18.80;64.70;;;;;;4198083;28;20060;-59
2022/02/03 20:08:52;;;;;;;9.35;7.50;;;18.80;64.60;;;;;;4198016;28;20127;-60
2022/02/03 20:11:16;;;;;;;11.98;8.18;;;18.90;64.60;;;;;;4197619;28;20056;-59
2022/02/03 20:13:38;;;;;;;14.45;8.50;;;18.90;64.50;;;;;;4197611;28;20508;-60
2022/02/03 20:16:01;;;;;;;10.95;8.02;;;18.90;64.30;;;;;;4174631;28;20140;-60
2022/02/03 20:18:24;;;;;;;16.73;9.05;;;18.90;64.10;;;;;;4188119;28;20064;-59
2022/02/03 20:20:46;;;;;;;14.15;8.75;;;18.90;64.10;;;;;;4197641;28;20143;-59
2022/02/03 20:23:11;;;;;;;21.30;9.57;;;18.90;64.20;;;;;;4197456;28;20060;-59
2022/02/03 20:25:34;;;;;;;13.10;9.10;;;18.80;64.40;;;;;;4197681;28;20496;-59
2022/02/03 20:27:56;;;;;;;12.32;8.25;;;18.80;64.60;;;;;;4180974;28;20049;-59
2022/02/03 20:30:18;;;;;;;18.73;9.30;;;18.80;64.90;;;;;;4180704;28;20520;-60
2022/02/03 20:32:42;;;;;;;11.55;9.13;;;18.70;65.10;;;;;;4194908;28;20055;-60
2022/02/03 20:35:05;;;;;;;13.68;8.63;;;18.60;65.30;;;;;;4197968;28;20064;-59
2022/02/03 20:37:27;;;;;;;16.63;8.32;;;18.50;65.60;;;;;;4197534;28;20052;-59
2022/02/03 20:39:50;;;;;;;15.77;9.38;;;18.40;66.10;;;;;;4197644;28;20518;-59
2022/02/03 20:42:15;;;;;;;11.52;8.32;;;18.30;66.50;;;;;;4197397;28;20052;-59
2022/02/03 20:44:37;;;;;;;14.40;9.27;;;18.10;67.00;;;;;;4196156;28;20060;-59
2022/02/03 20:46:59;;;;;;;14.10;8.95;;;18.10;67.40;;;;;;4197158;28;20056;-59
2022/02/03 20:49:23;;;;;;;15.82;9.38;;;17.90;67.80;;;;;;4197263;28;20135;-59
2022/02/03 20:51:45;;;;;;;14.27;8.95;;;17.90;68.20;;;;;;4197338;28;20057;-60
2022/02/03 20:54:08;;;;;;;15.18;8.93;;;17.70;68.50;;;;;;4197488;28;20067;-60
2022/02/03 20:56:30;;;;;;;12.20;10.05;;;17.60;68.90;;;;;;4196919;28;20388;-60